Terminal Aerodrome Forecast
Issued by NWS Shreveport, LA

Home | Current Version | Previous Version | Text Only | Print | Product List | Glossary On
Versions: 1 2 3 4 5 6 7 8 9 10 11 12 13 14 15 16 17 18 19 20 21 22 23 24 25 26 27 28
000
FTUS44 KSHV 262141 AAA
TAFTXK
TAF AMD
KTXK 262141Z 2622/2718 06008KT P6SM VCTS BKN050CB BKN250
      TEMPO 2622/2624 VRB10G15KT 5SM TSRA OVC035CB
     FM270100 09010KT P6SM OVC120
     FM271000 06013KT P6SM VCTS OVC015CB=

USA.gov is the U.S. government's official web portal to all federal, state and local government web resources and services.